sensor_id;sensor_type;location;lat;lon;timestamp;P1;durP1;ratioP1;P2;durP2;ratioP2
7398;SDS011;3740;50.700;7.184;2024-03-02T00:00:05;2.20;;;2.00;;
7398;SDS011;3740;50.700;7.184;2024-03-02T00:02:40;2.50;;;2.30;;
7398;SDS011;3740;50.700;7.184;2024-03-02T00:05:06;1.93;;;1.83;;
7398;SDS011;3740;50.700;7.184;2024-03-02T00:07:32;2.43;;;2.13;;
7398;SDS011;3740;50.700;7.184;2024-03-02T00:09:58;2.30;;;2.00;;
7398;SDS011;3740;50.700;7.184;2024-03-02T00:12:24;2.20;;;2.00;;
7398;SDS011;3740;50.700;7.184;2024-03-02T00:14:50;2.33;;;2.13;;
7398;SDS011;3740;50.700;7.184;2024-03-02T00:17:17;1.87;;;1.70;;
7398;SDS011;3740;50.700;7.184;2024-03-02T00:19:49;1.80;;;1.70;;
7398;SDS011;3740;50.700;7.184;2024-03-02T00:22:15;2.30;;;2.10;;
7398;SDS011;3740;50.700;7.184;2024-03-02T00:24:41;2.43;;;1.80;;
7398;SDS011;3740;50.700;7.184;2024-03-02T00:27:07;1.80;;;1.70;;
7398;SDS011;3740;50.700;7.184;2024-03-02T00:29:36;2.03;;;1.80;;
7398;SDS011;3740;50.700;7.184;2024-03-02T00:32:02;1.77;;;1.67;;
7398;SDS011;3740;50.700;7.184;2024-03-02T00:34:27;2.03;;;1.83;;
7398;SDS011;3740;50.700;7.184;2024-03-02T00:36:56;1.90;;;1.80;;
7398;SDS011;3740;50.700;7.184;2024-03-02T00:39:22;2.63;;;1.90;;
7398;SDS011;3740;50.700;7.184;2024-03-02T00:41:48;2.33;;;1.63;;
7398;SDS011;3740;50.700;7.184;2024-03-02T00:44:14;2.23;;;1.90;;
7398;SDS011;3740;50.700;7.184;2024-03-02T00:46:41;3.17;;;1.93;;
7398;SDS011;3740;50.700;7.184;2024-03-02T00:49:12;2.00;;;1.80;;
7398;SDS011;3740;50.700;7.184;2024-03-02T00:51:50;1.73;;;1.63;;
7398;SDS011;3740;50.700;7.184;2024-03-02T00:54:23;2.30;;;1.80;;
7398;SDS011;3740;50.700;7.184;2024-03-02T00:56:51;2.23;;;1.90;;
7398;SDS011;3740;50.700;7.184;2024-03-02T00:59:20;2.33;;;2.03;;
7398;SDS011;3740;50.700;7.184;2024-03-02T01:01:45;2.60;;;1.80;;
7398;SDS011;3740;50.700;7.184;2024-03-02T01:04:12;1.50;;;1.40;;
7398;SDS011;3740;50.700;7.184;2024-03-02T01:06:39;1.77;;;1.67;;
7398;SDS011;3740;50.700;7.184;2024-03-02T01:09:04;1.97;;;1.87;;
7398;SDS011;3740;50.700;7.184;2024-03-02T01:11:30;1.87;;;1.73;;
7398;SDS011;3740;50.700;7.184;2024-03-02T01:13:56;2.17;;;1.60;;
7398;SDS011;3740;50.700;7.184;2024-03-02T01:16:21;2.20;;;2.00;;
7398;SDS011;3740;50.700;7.184;2024-03-02T01:18:47;2.73;;;1.70;;
7398;SDS011;3740;50.700;7.184;2024-03-02T01:21:13;2.17;;;1.90;;
7398;SDS011;3740;50.700;7.184;2024-03-02T01:23:39;2.63;;;1.80;;
7398;SDS011;3740;50.700;7.184;2024-03-02T01:26:05;1.90;;;1.70;;
7398;SDS011;3740;50.700;7.184;2024-03-02T01:28:30;2.00;;;1.90;;
7398;SDS011;3740;50.700;7.184;2024-03-02T01:30:56;2.07;;;1.87;;
7398;SDS011;3740;50.700;7.184;2024-03-02T01:33:21;2.30;;;2.10;;
7398;SDS011;3740;50.700;7.184;2024-03-02T01:35:47;1.90;;;1.80;;
7398;SDS011;3740;50.700;7.184;2024-03-02T01:38:13;2.57;;;2.00;;
7398;SDS011;3740;50.700;7.184;2024-03-02T01:40:38;2.03;;;1.93;;
7398;SDS011;3740;50.700;7.184;2024-03-02T01:43:04;2.53;;;1.87;;
7398;SDS011;3740;50.700;7.184;2024-03-02T01:45:31;2.60;;;2.20;;
7398;SDS011;3740;50.700;7.184;2024-03-02T01:47:57;3.23;;;2.10;;
7398;SDS011;3740;50.700;7.184;2024-03-02T01:50:29;2.40;;;2.20;;
7398;SDS011;3740;50.700;7.184;2024-03-02T01:52:57;2.80;;;1.93;;
7398;SDS011;3740;50.700;7.184;2024-03-02T01:55:22;4.17;;;2.00;;
7398;SDS011;3740;50.700;7.184;2024-03-02T01:57:49;2.40;;;1.93;;
7398;SDS011;3740;50.700;7.184;2024-03-02T02:00:18;1.87;;;1.77;;
7398;SDS011;3740;50.700;7.184;2024-03-02T02:02:44;2.60;;;2.00;;
7398;SDS011;3740;50.700;7.184;2024-03-02T02:05:11;3.67;;;2.20;;
7398;SDS011;3740;50.700;7.184;2024-03-02T02:07:37;2.47;;;2.00;;
7398;SDS011;3740;50.700;7.184;2024-03-02T02:10:03;2.10;;;1.83;;
7398;SDS011;3740;50.700;7.184;2024-03-02T02:12:29;2.87;;;2.03;;
7398;SDS011;3740;50.700;7.184;2024-03-02T02:14:54;2.00;;;1.87;;
7398;SDS011;3740;50.700;7.184;2024-03-02T02:17:20;2.40;;;2.03;;
7398;SDS011;3740;50.700;7.184;2024-03-02T02:19:45;2.20;;;1.90;;
7398;SDS011;3740;50.700;7.184;2024-03-02T02:22:11;2.23;;;2.03;;
7398;SDS011;3740;50.700;7.184;2024-03-02T02:24:42;1.87;;;1.73;;
7398;SDS011;3740;50.700;7.184;2024-03-02T02:27:08;1.57;;;1.47;;
7398;SDS011;3740;50.700;7.184;2024-03-02T02:29:35;2.07;;;1.97;;
7398;SDS011;3740;50.700;7.184;2024-03-02T02:32:01;2.10;;;1.90;;
7398;SDS011;3740;50.700;7.184;2024-03-02T02:34:27;1.80;;;1.57;;
7398;SDS011;3740;50.700;7.184;2024-03-02T02:36:53;3.40;;;1.63;;
7398;SDS011;3740;50.700;7.184;2024-03-02T02:39:19;2.10;;;1.80;;
7398;SDS011;3740;50.700;7.184;2024-03-02T02:41:47;2.50;;;2.13;;
7398;SDS011;3740;50.700;7.184;2024-03-02T02:44:13;1.90;;;1.80;;
7398;SDS011;3740;50.700;7.184;2024-03-02T02:46:39;2.43;;;1.90;;
7398;SDS011;3740;50.700;7.184;2024-03-02T02:49:05;2.97;;;2.10;;
7398;SDS011;3740;50.700;7.184;2024-03-02T02:51:30;2.13;;;1.87;;
7398;SDS011;3740;50.700;7.184;2024-03-02T02:53:56;2.27;;;2.07;;
7398;SDS011;3740;50.700;7.184;2024-03-02T02:56:22;3.67;;;2.43;;
7398;SDS011;3740;50.700;7.184;2024-03-02T02:58:47;2.53;;;2.23;;
7398;SDS011;3740;50.700;7.184;2024-03-02T03:01:13;2.60;;;2.40;;
7398;SDS011;3740;50.700;7.184;2024-03-02T03:03:39;2.27;;;2.07;;
7398;SDS011;3740;50.700;7.184;2024-03-02T03:06:05;2.63;;;2.10;;
7398;SDS011;3740;50.700;7.184;2024-03-02T03:08:31;2.27;;;2.03;;
7398;SDS011;3740;50.700;7.184;2024-03-02T03:10:56;2.43;;;2.20;;
7398;SDS011;3740;50.700;7.184;2024-03-02T03:13:22;2.00;;;1.90;;
7398;SDS011;3740;50.700;7.184;2024-03-02T03:15:48;2.93;;;2.20;;
7398;SDS011;3740;50.700;7.184;2024-03-02T03:18:13;2.93;;;2.17;;
7398;SDS011;3740;50.700;7.184;2024-03-02T03:20:39;2.73;;;2.30;;
7398;SDS011;3740;50.700;7.184;2024-03-02T03:23:04;2.40;;;1.90;;
7398;SDS011;3740;50.700;7.184;2024-03-02T03:25:30;2.10;;;1.90;;
7398;SDS011;3740;50.700;7.184;2024-03-02T03:27:56;2.57;;;2.37;;
7398;SDS011;3740;50.700;7.184;2024-03-02T03:30:22;2.80;;;1.87;;
7398;SDS011;3740;50.700;7.184;2024-03-02T03:32:48;2.40;;;2.20;;
7398;SDS011;3740;50.700;7.184;2024-03-02T03:35:13;2.50;;;2.07;;
7398;SDS011;3740;50.700;7.184;2024-03-02T03:37:41;2.63;;;2.10;;
7398;SDS011;3740;50.700;7.184;2024-03-02T03:40:06;2.37;;;2.17;;
7398;SDS011;3740;50.700;7.184;2024-03-02T03:42:38;2.60;;;2.07;;
7398;SDS011;3740;50.700;7.184;2024-03-02T03:45:04;2.37;;;2.17;;
7398;SDS011;3740;50.700;7.184;2024-03-02T03:47:33;2.50;;;2.23;;
7398;SDS011;3740;50.700;7.184;2024-03-02T03:49:59;2.30;;;2.10;;
7398;SDS011;3740;50.700;7.184;2024-03-02T03:52:25;2.63;;;2.43;;
7398;SDS011;3740;50.700;7.184;2024-03-02T03:54:50;2.13;;;1.93;;
7398;SDS011;3740;50.700;7.184;2024-03-02T03:57:16;2.10;;;1.90;;
7398;SDS011;3740;50.700;7.184;2024-03-02T03:59:42;3.03;;;2.47;;
7398;SDS011;3740;50.700;7.184;2024-03-02T04:02:08;3.33;;;2.43;;
7398;SDS011;3740;50.700;7.184;2024-03-02T04:04:34;2.50;;;2.30;;
7398;SDS011;3740;50.700;7.184;2024-03-02T04:07:00;2.80;;;2.37;;
7398;SDS011;3740;50.700;7.184;2024-03-02T04:09:25;2.40;;;2.20;;
7398;SDS011;3740;50.700;7.184;2024-03-02T04:11:51;2.90;;;2.60;;
7398;SDS011;3740;50.700;7.184;2024-03-02T04:14:17;2.60;;;2.40;;
7398;SDS011;3740;50.700;7.184;2024-03-02T04:16:42;2.10;;;2.00;;
7398;SDS011;3740;50.700;7.184;2024-03-02T04:19:08;2.60;;;2.10;;
7398;SDS011;3740;50.700;7.184;2024-03-02T04:21:33;3.10;;;2.57;;
7398;SDS011;3740;50.700;7.184;2024-03-02T04:23:59;2.80;;;2.60;;
7398;SDS011;3740;50.700;7.184;2024-03-02T04:26:25;2.70;;;2.50;;
7398;SDS011;3740;50.700;7.184;2024-03-02T04:28:51;3.70;;;2.97;;
7398;SDS011;3740;50.700;7.184;2024-03-02T04:31:17;2.60;;;2.40;;
7398;SDS011;3740;50.700;7.184;2024-03-02T04:33:43;3.30;;;2.73;;
7398;SDS011;3740;50.700;7.184;2024-03-02T04:36:09;2.57;;;2.37;;
7398;SDS011;3740;50.700;7.184;2024-03-02T04:38:35;2.90;;;2.63;;
7398;SDS011;3740;50.700;7.184;2024-03-02T04:41:01;4.07;;;2.73;;
7398;SDS011;3740;50.700;7.184;2024-03-02T04:43:26;2.40;;;2.20;;
7398;SDS011;3740;50.700;7.184;2024-03-02T04:45:52;3.30;;;2.60;;
7398;SDS011;3740;50.700;7.184;2024-03-02T04:48:17;2.90;;;2.60;;
7398;SDS011;3740;50.700;7.184;2024-03-02T04:50:44;2.73;;;2.27;;
7398;SDS011;3740;50.700;7.184;2024-03-02T04:53:09;3.10;;;2.80;;
7398;SDS011;3740;50.700;7.184;2024-03-02T04:55:35;3.67;;;2.80;;
7398;SDS011;3740;50.700;7.184;2024-03-02T04:58:04;3.53;;;3.17;;
7398;SDS011;3740;50.700;7.184;2024-03-02T05:00:30;3.33;;;2.90;;
7398;SDS011;3740;50.700;7.184;2024-03-02T05:02:55;3.73;;;2.77;;
7398;SDS011;3740;50.700;7.184;2024-03-02T05:05:21;2.83;;;2.63;;
7398;SDS011;3740;50.700;7.184;2024-03-02T05:07:46;3.60;;;2.87;;
7398;SDS011;3740;50.700;7.184;2024-03-02T05:10:12;3.93;;;2.83;;
7398;SDS011;3740;50.700;7.184;2024-03-02T05:12:37;3.37;;;3.07;;
7398;SDS011;3740;50.700;7.184;2024-03-02T05:15:13;3.00;;;2.70;;
7398;SDS011;3740;50.700;7.184;2024-03-02T05:17:39;2.50;;;2.30;;
7398;SDS011;3740;50.700;7.184;2024-03-02T05:20:06;3.00;;;2.70;;
7398;SDS011;3740;50.700;7.184;2024-03-02T05:22:33;2.87;;;2.57;;
7398;SDS011;3740;50.700;7.184;2024-03-02T05:24:59;2.73;;;2.53;;
7398;SDS011;3740;50.700;7.184;2024-03-02T05:27:26;4.17;;;2.73;;
7398;SDS011;3740;50.700;7.184;2024-03-02T05:29:51;3.80;;;2.33;;
7398;SDS011;3740;50.700;7.184;2024-03-02T05:32:17;3.37;;;2.50;;
7398;SDS011;3740;50.700;7.184;2024-03-02T05:34:43;3.93;;;2.67;;
7398;SDS011;3740;50.700;7.184;2024-03-02T05:37:08;2.53;;;2.33;;
7398;SDS011;3740;50.700;7.184;2024-03-02T05:39:34;4.30;;;2.80;;
7398;SDS011;3740;50.700;7.184;2024-03-02T05:41:59;2.63;;;2.40;;
7398;SDS011;3740;50.700;7.184;2024-03-02T05:44:25;3.00;;;2.70;;
7398;SDS011;3740;50.700;7.184;2024-03-02T05:46:50;3.00;;;2.60;;
7398;SDS011;3740;50.700;7.184;2024-03-02T05:49:16;3.40;;;2.77;;
7398;SDS011;3740;50.700;7.184;2024-03-02T05:51:41;3.30;;;3.00;;
7398;SDS011;3740;50.700;7.184;2024-03-02T05:54:07;2.50;;;2.30;;
7398;SDS011;3740;50.700;7.184;2024-03-02T05:56:32;2.90;;;2.70;;
7398;SDS011;3740;50.700;7.184;2024-03-02T05:58:58;3.20;;;2.90;;
7398;SDS011;3740;50.700;7.184;2024-03-02T06:04:04;3.40;;;3.10;;
7398;SDS011;3740;50.700;7.184;2024-03-02T06:06:30;3.63;;;2.90;;
7398;SDS011;3740;50.700;7.184;2024-03-02T06:08:58;3.70;;;3.40;;
7398;SDS011;3740;50.700;7.184;2024-03-02T06:11:39;3.43;;;3.13;;
7398;SDS011;3740;50.700;7.184;2024-03-02T06:14:06;3.20;;;3.00;;
7398;SDS011;3740;50.700;7.184;2024-03-02T06:16:33;3.40;;;3.13;;
7398;SDS011;3740;50.700;7.184;2024-03-02T06:18:59;3.50;;;3.20;;
7398;SDS011;3740;50.700;7.184;2024-03-02T06:21:25;4.20;;;3.80;;
7398;SDS011;3740;50.700;7.184;2024-03-02T06:23:51;3.67;;;3.33;;
7398;SDS011;3740;50.700;7.184;2024-03-02T06:26:17;2.90;;;2.70;;
7398;SDS011;3740;50.700;7.184;2024-03-02T06:28:43;4.03;;;3.03;;
7398;SDS011;3740;50.700;7.184;2024-03-02T06:31:09;2.80;;;2.60;;
7398;SDS011;3740;50.700;7.184;2024-03-02T06:33:34;2.63;;;2.43;;
7398;SDS011;3740;50.700;7.184;2024-03-02T06:36:00;2.57;;;2.37;;
7398;SDS011;3740;50.700;7.184;2024-03-02T06:38:26;2.43;;;2.23;;
7398;SDS011;3740;50.700;7.184;2024-03-02T06:40:52;3.33;;;2.57;;
7398;SDS011;3740;50.700;7.184;2024-03-02T06:43:17;2.70;;;2.30;;
7398;SDS011;3740;50.700;7.184;2024-03-02T06:45:43;2.87;;;2.50;;
7398;SDS011;3740;50.700;7.184;2024-03-02T06:48:08;3.90;;;2.60;;
7398;SDS011;3740;50.700;7.184;2024-03-02T06:50:34;2.80;;;2.50;;
7398;SDS011;3740;50.700;7.184;2024-03-02T06:53:00;2.60;;;2.40;;
7398;SDS011;3740;50.700;7.184;2024-03-02T06:55:25;2.80;;;2.60;;
7398;SDS011;3740;50.700;7.184;2024-03-02T06:57:51;2.50;;;2.20;;
7398;SDS011;3740;50.700;7.184;2024-03-02T07:00:17;3.03;;;2.70;;
7398;SDS011;3740;50.700;7.184;2024-03-02T07:02:43;2.57;;;2.30;;
7398;SDS011;3740;50.700;7.184;2024-03-02T07:05:09;3.23;;;2.60;;
7398;SDS011;3740;50.700;7.184;2024-03-02T07:07:36;3.47;;;2.53;;
7398;SDS011;3740;50.700;7.184;2024-03-02T07:10:05;3.93;;;2.33;;
7398;SDS011;3740;50.700;7.184;2024-03-02T07:12:32;3.13;;;2.43;;
7398;SDS011;3740;50.700;7.184;2024-03-02T07:14:58;3.67;;;2.47;;
7398;SDS011;3740;50.700;7.184;2024-03-02T07:17:29;3.10;;;2.33;;
7398;SDS011;3740;50.700;7.184;2024-03-02T07:19:56;3.77;;;2.60;;
7398;SDS011;3740;50.700;7.184;2024-03-02T07:22:21;2.97;;;2.67;;
7398;SDS011;3740;50.700;7.184;2024-03-02T07:24:47;3.40;;;3.10;;
7398;SDS011;3740;50.700;7.184;2024-03-02T07:27:14;4.60;;;3.30;;
7398;SDS011;3740;50.700;7.184;2024-03-02T07:29:40;4.17;;;3.77;;
7398;SDS011;3740;50.700;7.184;2024-03-02T07:32:06;3.90;;;3.60;;
7398;SDS011;3740;50.700;7.184;2024-03-02T07:34:32;4.30;;;3.80;;
7398;SDS011;3740;50.700;7.184;2024-03-02T07:36:58;4.03;;;3.30;;
7398;SDS011;3740;50.700;7.184;2024-03-02T07:39:24;3.93;;;3.53;;
7398;SDS011;3740;50.700;7.184;2024-03-02T07:41:50;4.97;;;4.10;;
7398;SDS011;3740;50.700;7.184;2024-03-02T07:44:16;4.07;;;3.47;;
7398;SDS011;3740;50.700;7.184;2024-03-02T07:46:44;4.60;;;3.23;;
7398;SDS011;3740;50.700;7.184;2024-03-02T07:49:11;3.67;;;3.10;;
7398;SDS011;3740;50.700;7.184;2024-03-02T07:51:39;4.07;;;3.03;;
7398;SDS011;3740;50.700;7.184;2024-03-02T07:54:04;3.73;;;2.80;;
7398;SDS011;3740;50.700;7.184;2024-03-02T07:56:30;3.40;;;2.67;;
7398;SDS011;3740;50.700;7.184;2024-03-02T07:58:56;4.40;;;3.20;;
7398;SDS011;3740;50.700;7.184;2024-03-02T08:01:25;3.80;;;3.37;;
7398;SDS011;3740;50.700;7.184;2024-03-02T08:03:55;2.60;;;2.40;;
7398;SDS011;3740;50.700;7.184;2024-03-02T08:06:23;3.00;;;2.40;;
7398;SDS011;3740;50.700;7.184;2024-03-02T08:08:55;3.33;;;2.33;;
7398;SDS011;3740;50.700;7.184;2024-03-02T08:11:21;2.53;;;2.33;;
7398;SDS011;3740;50.700;7.184;2024-03-02T08:13:47;3.17;;;2.57;;
7398;SDS011;3740;50.700;7.184;2024-03-02T08:16:16;3.70;;;2.57;;
7398;SDS011;3740;50.700;7.184;2024-03-02T08:18:45;2.60;;;2.37;;
7398;SDS011;3740;50.700;7.184;2024-03-02T08:21:14;3.17;;;2.50;;
7398;SDS011;3740;50.700;7.184;2024-03-02T08:23:40;2.57;;;2.40;;
7398;SDS011;3740;50.700;7.184;2024-03-02T08:26:07;3.53;;;2.63;;
7398;SDS011;3740;50.700;7.184;2024-03-02T08:28:36;3.10;;;2.53;;
7398;SDS011;3740;50.700;7.184;2024-03-02T08:31:02;2.87;;;2.63;;
7398;SDS011;3740;50.700;7.184;2024-03-02T08:33:28;3.30;;;2.60;;
7398;SDS011;3740;50.700;7.184;2024-03-02T08:35:53;4.17;;;3.03;;
7398;SDS011;3740;50.700;7.184;2024-03-02T08:38:19;3.37;;;2.87;;
7398;SDS011;3740;50.700;7.184;2024-03-02T08:40:45;3.27;;;2.80;;
7398;SDS011;3740;50.700;7.184;2024-03-02T08:43:11;3.13;;;2.83;;
7398;SDS011;3740;50.700;7.184;2024-03-02T08:45:36;3.83;;;3.20;;
7398;SDS011;3740;50.700;7.184;2024-03-02T08:48:04;4.50;;;2.57;;
7398;SDS011;3740;50.700;7.184;2024-03-02T08:50:31;3.50;;;3.03;;
7398;SDS011;3740;50.700;7.184;2024-03-02T08:52:57;3.20;;;2.90;;
7398;SDS011;3740;50.700;7.184;2024-03-02T08:55:22;3.90;;;3.03;;
7398;SDS011;3740;50.700;7.184;2024-03-02T08:57:48;5.60;;;3.60;;
7398;SDS011;3740;50.700;7.184;2024-03-02T09:00:15;2.60;;;2.40;;
7398;SDS011;3740;50.700;7.184;2024-03-02T09:02:43;3.30;;;2.70;;
7398;SDS011;3740;50.700;7.184;2024-03-02T09:05:09;4.40;;;2.80;;
7398;SDS011;3740;50.700;7.184;2024-03-02T09:07:35;3.03;;;2.70;;
7398;SDS011;3740;50.700;7.184;2024-03-02T09:10:00;2.87;;;2.57;;
7398;SDS011;3740;50.700;7.184;2024-03-02T09:12:26;3.10;;;2.60;;
7398;SDS011;3740;50.700;7.184;2024-03-02T09:14:51;3.73;;;3.00;;
7398;SDS011;3740;50.700;7.184;2024-03-02T09:17:17;4.70;;;3.00;;
7398;SDS011;3740;50.700;7.184;2024-03-02T09:19:42;3.47;;;2.70;;
7398;SDS011;3740;50.700;7.184;2024-03-02T09:22:08;3.60;;;2.80;;
7398;SDS011;3740;50.700;7.184;2024-03-02T09:24:34;3.67;;;2.77;;
7398;SDS011;3740;50.700;7.184;2024-03-02T09:27:00;2.70;;;2.50;;
7398;SDS011;3740;50.700;7.184;2024-03-02T09:29:25;2.63;;;2.43;;
7398;SDS011;3740;50.700;7.184;2024-03-02T09:31:51;2.50;;;2.20;;
7398;SDS011;3740;50.700;7.184;2024-03-02T09:34:17;3.40;;;2.77;;
7398;SDS011;3740;50.700;7.184;2024-03-02T09:36:43;5.17;;;2.80;;
7398;SDS011;3740;50.700;7.184;2024-03-02T09:39:08;3.57;;;2.73;;
7398;SDS011;3740;50.700;7.184;2024-03-02T09:41:35;3.53;;;2.97;;
7398;SDS011;3740;50.700;7.184;2024-03-02T09:44:04;3.70;;;2.83;;
7398;SDS011;3740;50.700;7.184;2024-03-02T09:46:30;3.67;;;2.83;;
7398;SDS011;3740;50.700;7.184;2024-03-02T09:48:56;3.80;;;2.60;;
7398;SDS011;3740;50.700;7.184;2024-03-02T09:51:22;4.07;;;2.83;;
7398;SDS011;3740;50.700;7.184;2024-03-02T09:53:48;3.10;;;2.80;;
7398;SDS011;3740;50.700;7.184;2024-03-02T09:56:14;3.03;;;2.80;;
7398;SDS011;3740;50.700;7.184;2024-03-02T09:58:46;2.93;;;2.63;;
7398;SDS011;3740;50.700;7.184;2024-03-02T10:01:12;3.90;;;2.97;;
7398;SDS011;3740;50.700;7.184;2024-03-02T10:03:37;2.80;;;2.60;;
7398;SDS011;3740;50.700;7.184;2024-03-02T10:06:22;3.73;;;3.10;;
7398;SDS011;3740;50.700;7.184;2024-03-02T10:08:52;3.43;;;2.90;;
7398;SDS011;3740;50.700;7.184;2024-03-02T10:11:31;3.23;;;2.67;;
7398;SDS011;3740;50.700;7.184;2024-03-02T10:16:35;3.17;;;2.87;;
7398;SDS011;3740;50.700;7.184;2024-03-02T10:19:20;3.20;;;3.00;;
7398;SDS011;3740;50.700;7.184;2024-03-02T10:21:51;4.90;;;2.90;;
7398;SDS011;3740;50.700;7.184;2024-03-02T10:24:18;3.07;;;2.67;;
7398;SDS011;3740;50.700;7.184;2024-03-02T10:26:44;3.00;;;2.70;;
7398;SDS011;3740;50.700;7.184;2024-03-02T10:29:10;3.37;;;3.07;;
7398;SDS011;3740;50.700;7.184;2024-03-02T10:31:39;2.97;;;2.70;;
7398;SDS011;3740;50.700;7.184;2024-03-02T10:34:06;3.10;;;2.90;;
7398;SDS011;3740;50.700;7.184;2024-03-02T10:36:36;5.07;;;3.20;;
7398;SDS011;3740;50.700;7.184;2024-03-02T10:39:02;3.30;;;2.70;;
7398;SDS011;3740;50.700;7.184;2024-03-02T10:41:31;2.63;;;2.42;;
7398;SDS011;3740;50.700;7.184;2024-03-02T10:43:59;2.58;;;2.35;;
7398;SDS011;3740;50.700;7.184;2024-03-02T10:46:28;3.10;;;2.75;;
7398;SDS011;3740;50.700;7.184;2024-03-02T10:48:55;1.98;;;1.88;;
7398;SDS011;3740;50.700;7.184;2024-03-02T10:51:24;2.25;;;2.13;;
7398;SDS011;3740;50.700;7.184;2024-03-02T10:53:51;2.78;;;2.42;;
7398;SDS011;3740;50.700;7.184;2024-03-02T10:56:21;2.33;;;2.13;;
7398;SDS011;3740;50.700;7.184;2024-03-02T10:58:55;2.60;;;2.40;;
7398;SDS011;3740;50.700;7.184;2024-03-02T11:01:29;2.40;;;2.20;;
7398;SDS011;3740;50.700;7.184;2024-03-02T11:03:56;2.42;;;2.22;;
7398;SDS011;3740;50.700;7.184;2024-03-02T11:06:23;2.22;;;2.03;;
7398;SDS011;3740;50.700;7.184;2024-03-02T11:08:51;1.90;;;1.80;;
7398;SDS011;3740;50.700;7.184;2024-03-02T11:11:21;1.88;;;1.77;;
7398;SDS011;3740;50.700;7.184;2024-03-02T11:13:54;2.22;;;2.00;;
7398;SDS011;3740;50.700;7.184;2024-03-02T11:16:33;3.13;;;2.30;;
7398;SDS011;3740;50.700;7.184;2024-03-02T11:19:04;2.60;;;2.40;;
7398;SDS011;3740;50.700;7.184;2024-03-02T11:21:34;1.85;;;1.73;;
7398;SDS011;3740;50.700;7.184;2024-03-02T11:24:27;2.55;;;2.28;;
7398;SDS011;3740;50.700;7.184;2024-03-02T11:26:46;2.33;;;1.95;;
7398;SDS011;3740;50.700;7.184;2024-03-02T11:32:06;1.70;;;1.60;;
7398;SDS011;3740;50.700;7.184;2024-03-02T11:34:49;2.30;;;2.10;;
7398;SDS011;3740;50.700;7.184;2024-03-02T11:37:16;2.25;;;1.83;;
7398;SDS011;3740;50.700;7.184;2024-03-02T11:39:44;1.73;;;1.63;;
7398;SDS011;3740;50.700;7.184;2024-03-02T11:42:10;3.15;;;1.73;;
7398;SDS011;3740;50.700;7.184;2024-03-02T11:44:38;1.67;;;1.40;;
7398;SDS011;3740;50.700;7.184;2024-03-02T11:47:06;1.65;;;1.40;;
7398;SDS011;3740;50.700;7.184;2024-03-02T11:49:42;1.40;;;1.30;;
7398;SDS011;3740;50.700;7.184;2024-03-02T11:52:17;1.65;;;1.55;;
7398;SDS011;3740;50.700;7.184;2024-03-02T11:54:46;1.60;;;1.50;;
7398;SDS011;3740;50.700;7.184;2024-03-02T11:57:13;2.63;;;1.80;;
7398;SDS011;3740;50.700;7.184;2024-03-02T11:59:40;1.60;;;1.50;;
7398;SDS011;3740;50.700;7.184;2024-03-02T12:02:06;1.95;;;1.67;;
7398;SDS011;3740;50.700;7.184;2024-03-02T12:04:37;1.75;;;1.65;;
7398;SDS011;3740;50.700;7.184;2024-03-02T12:07:03;2.05;;;1.85;;
7398;SDS011;3740;50.700;7.184;2024-03-02T12:09:29;2.10;;;1.90;;
7398;SDS011;3740;50.700;7.184;2024-03-02T12:12:08;1.95;;;1.83;;
7398;SDS011;3740;50.700;7.184;2024-03-02T12:14:35;1.85;;;1.75;;
7398;SDS011;3740;50.700;7.184;2024-03-02T12:17:02;2.08;;;1.88;;
7398;SDS011;3740;50.700;7.184;2024-03-02T12:19:28;1.60;;;1.50;;
7398;SDS011;3740;50.700;7.184;2024-03-02T12:21:55;1.88;;;1.77;;
7398;SDS011;3740;50.700;7.184;2024-03-02T12:24:21;1.73;;;1.63;;
7398;SDS011;3740;50.700;7.184;2024-03-02T12:26:47;1.80;;;1.70;;
7398;SDS011;3740;50.700;7.184;2024-03-02T12:29:18;1.65;;;1.55;;
7398;SDS011;3740;50.700;7.184;2024-03-02T12:31:44;1.63;;;1.52;;
7398;SDS011;3740;50.700;7.184;2024-03-02T12:34:11;1.58;;;1.45;;
7398;SDS011;3740;50.700;7.184;2024-03-02T12:36:38;2.05;;;1.58;;
7398;SDS011;3740;50.700;7.184;2024-03-02T12:39:06;2.05;;;1.50;;
7398;SDS011;3740;50.700;7.184;2024-03-02T12:41:35;1.58;;;1.40;;
7398;SDS011;3740;50.700;7.184;2024-03-02T12:44:02;1.20;;;1.10;;
7398;SDS011;3740;50.700;7.184;2024-03-02T12:46:28;1.65;;;1.30;;
7398;SDS011;3740;50.700;7.184;2024-03-02T12:48:53;1.65;;;1.35;;
7398;SDS011;3740;50.700;7.184;2024-03-02T12:51:19;1.30;;;1.20;;
7398;SDS011;3740;50.700;7.184;2024-03-02T12:53:45;1.45;;;1.27;;
7398;SDS011;3740;50.700;7.184;2024-03-02T12:56:10;1.52;;;1.42;;
7398;SDS011;3740;50.700;7.184;2024-03-02T12:58:39;1.60;;;1.50;;
7398;SDS011;3740;50.700;7.184;2024-03-02T13:01:08;3.13;;;1.60;;
7398;SDS011;3740;50.700;7.184;2024-03-02T13:03:36;2.53;;;1.65;;
7398;SDS011;3740;50.700;7.184;2024-03-02T13:06:03;1.85;;;1.40;;
7398;SDS011;3740;50.700;7.184;2024-03-02T13:08:30;1.63;;;1.20;;
7398;SDS011;3740;50.700;7.184;2024-03-02T13:10:55;2.08;;;1.30;;
7398;SDS011;3740;50.700;7.184;2024-03-02T13:13:21;2.05;;;1.58;;
7398;SDS011;3740;50.700;7.184;2024-03-02T13:15:48;1.58;;;1.50;;
7398;SDS011;3740;50.700;7.184;2024-03-02T13:18:13;2.70;;;1.70;;
7398;SDS011;3740;50.700;7.184;2024-03-02T13:20:39;1.48;;;1.20;;
7398;SDS011;3740;50.700;7.184;2024-03-02T13:23:05;1.33;;;1.23;;
7398;SDS011;3740;50.700;7.184;2024-03-02T13:25:31;1.60;;;1.45;;
7398;SDS011;3740;50.700;7.184;2024-03-02T13:27:57;1.70;;;1.60;;
7398;SDS011;3740;50.700;7.184;2024-03-02T13:30:23;1.52;;;1.42;;
7398;SDS011;3740;50.700;7.184;2024-03-02T13:32:48;1.60;;;1.50;;
7398;SDS011;3740;50.700;7.184;2024-03-02T13:35:14;1.67;;;1.30;;
7398;SDS011;3740;50.700;7.184;2024-03-02T13:37:40;2.00;;;1.50;;
7398;SDS011;3740;50.700;7.184;2024-03-02T13:40:05;2.70;;;1.50;;
7398;SDS011;3740;50.700;7.184;2024-03-02T13:42:31;2.03;;;1.80;;
7398;SDS011;3740;50.700;7.184;2024-03-02T13:44:57;1.80;;;1.70;;
7398;SDS011;3740;50.700;7.184;2024-03-02T13:47:23;1.70;;;1.60;;
7398;SDS011;3740;50.700;7.184;2024-03-02T13:49:48;1.95;;;1.42;;
7398;SDS011;3740;50.700;7.184;2024-03-02T13:52:14;1.67;;;1.58;;
7398;SDS011;3740;50.700;7.184;2024-03-02T13:54:42;1.90;;;1.40;;
7398;SDS011;3740;50.700;7.184;2024-03-02T13:57:09;1.80;;;1.08;;
7398;SDS011;3740;50.700;7.184;2024-03-02T13:59:36;1.27;;;1.17;;
7398;SDS011;3740;50.700;7.184;2024-03-02T14:02:02;1.92;;;1.17;;
7398;SDS011;3740;50.700;7.184;2024-03-02T14:04:31;1.30;;;1.10;;
7398;SDS011;3740;50.700;7.184;2024-03-02T14:06:58;1.30;;;1.20;;
7398;SDS011;3740;50.700;7.184;2024-03-02T14:09:24;1.75;;;1.50;;
7398;SDS011;3740;50.700;7.184;2024-03-02T14:11:50;1.40;;;1.30;;
7398;SDS011;3740;50.700;7.184;2024-03-02T14:14:18;1.42;;;1.20;;
7398;SDS011;3740;50.700;7.184;2024-03-02T14:16:44;1.75;;;1.65;;
7398;SDS011;3740;50.700;7.184;2024-03-02T14:19:12;2.10;;;1.90;;
7398;SDS011;3740;50.700;7.184;2024-03-02T14:21:38;1.58;;;1.48;;
7398;SDS011;3740;50.700;7.184;2024-03-02T14:24:04;1.80;;;1.70;;
7398;SDS011;3740;50.700;7.184;2024-03-02T14:26:32;1.48;;;1.38;;
7398;SDS011;3740;50.700;7.184;2024-03-02T14:28:58;1.70;;;1.55;;
7398;SDS011;3740;50.700;7.184;2024-03-02T14:31:27;1.60;;;1.50;;
7398;SDS011;3740;50.700;7.184;2024-03-02T14:33:52;1.80;;;1.70;;
7398;SDS011;3740;50.700;7.184;2024-03-02T14:36:19;1.83;;;1.73;;
7398;SDS011;3740;50.700;7.184;2024-03-02T14:38:45;3.20;;;1.75;;
7398;SDS011;3740;50.700;7.184;2024-03-02T14:41:11;1.67;;;1.45;;
7398;SDS011;3740;50.700;7.184;2024-03-02T14:43:36;2.25;;;1.67;;
7398;SDS011;3740;50.700;7.184;2024-03-02T14:46:02;1.98;;;1.80;;
7398;SDS011;3740;50.700;7.184;2024-03-02T14:48:28;1.73;;;1.63;;
7398;SDS011;3740;50.700;7.184;2024-03-02T14:50:54;2.05;;;1.92;;
7398;SDS011;3740;50.700;7.184;2024-03-02T14:53:20;2.00;;;1.65;;
7398;SDS011;3740;50.700;7.184;2024-03-02T14:55:45;1.45;;;1.35;;
7398;SDS011;3740;50.700;7.184;2024-03-02T14:58:11;1.58;;;1.48;;
7398;SDS011;3740;50.700;7.184;2024-03-02T15:00:36;1.67;;;1.58;;
7398;SDS011;3740;50.700;7.184;2024-03-02T15:03:02;2.40;;;2.00;;
7398;SDS011;3740;50.700;7.184;2024-03-02T15:05:30;1.88;;;1.77;;
7398;SDS011;3740;50.700;7.184;2024-03-02T15:07:56;1.20;;;1.15;;
7398;SDS011;3740;50.700;7.184;2024-03-02T15:10:24;1.88;;;1.63;;
7398;SDS011;3740;50.700;7.184;2024-03-02T15:12:49;1.58;;;1.48;;
7398;SDS011;3740;50.700;7.184;2024-03-02T15:15:15;1.63;;;1.52;;
7398;SDS011;3740;50.700;7.184;2024-03-02T15:17:41;1.20;;;1.20;;
7398;SDS011;3740;50.700;7.184;2024-03-02T15:20:07;1.60;;;1.42;;